Time;durP1;ratioP1;P1;durP2;ratioP2;P2;SDS_P1;SDS_P2;PMS_P1;PMS_P2;Temp;Humidity;BMP_temperature;BMP_pressure;BME280_temperature;BME280_humidity;BME280_pressure;Samples;Min_cycle;Max_cycle;Signal;HPM_P1;HPM_P2
2023/07/17 00:01:00;;;;;;;6.75;4.18;;;;;;;16.08;100.00;101494.38;4958040;29;20050;-75
2023/07/17 00:03:25;;;;;;;9.02;4.07;;;;;;;15.98;100.00;101489.03;4958018;29;20024;-76
2023/07/17 00:05:51;;;;;;;9.52;4.10;;;;;;;16.16;100.00;101532.91;4957887;29;20067;-75
2023/07/17 00:08:17;;;;;;;6.68;4.18;;;;;;;16.03;100.00;101520.78;4958268;29;20031;-75
2023/07/17 00:10:43;;;;;;;7.55;3.85;;;;;;;16.11;100.00;101529.78;4957904;29;20349;-75
2023/07/17 00:13:08;;;;;;;7.90;4.03;;;;;;;16.07;100.00;101529.19;4957793;29;20035;-75
2023/07/17 00:15:34;;;;;;;10.75;4.25;;;;;;;16.04;100.00;101524.22;4957917;29;20026;-75
2023/07/17 00:17:59;;;;;;;7.78;4.25;;;;;;;15.93;100.00;101508.56;4957749;29;20038;-75
2023/07/17 00:20:24;;;;;;;8.40;4.13;;;;;;;16.01;100.00;101525.28;4957702;29;20107;-76
2023/07/17 00:22:50;;;;;;;7.82;4.10;;;;;;;15.99;100.00;101526.34;4958060;29;20023;-75
2023/07/17 00:25:15;;;;;;;9.15;4.28;;;;;;;15.85;100.00;101508.31;4957652;29;20031;-75
2023/07/17 00:27:41;;;;;;;10.75;4.35;;;;;;;15.91;100.00;101524.28;4957546;29;20050;-77
2023/07/17 00:30:06;;;;;;;6.80;4.03;;;;;;;15.83;100.00;101512.78;4957662;29;20538;-77
2023/07/17 00:32:32;;;;;;;8.02;4.18;;;;;;;15.88;100.00;101532.34;4957690;29;20063;-77
2023/07/17 00:34:57;;;;;;;7.55;3.80;;;;;;;15.88;100.00;101531.50;4957501;29;20070;-77
2023/07/17 00:37:23;;;;;;;7.95;3.97;;;;;;;15.76;100.00;101508.03;4957597;29;20035;-78
2023/07/17 00:39:49;;;;;;;7.85;3.88;;;;;;;15.88;100.00;101528.91;4957387;29;20074;-77
2023/07/17 00:42:15;;;;;;;7.70;3.95;;;;;;;15.87;100.00;101535.91;4957445;29;20440;-77
2023/07/17 00:44:40;;;;;;;8.07;3.80;;;;;;;15.85;100.00;101534.34;4957472;29;20027;-77
2023/07/17 00:47:08;;;;;;;7.13;3.33;;;;;;;15.73;100.00;101531.72;4957288;29;20387;-77
2023/07/17 00:49:33;;;;;;;9.38;3.53;;;;;;;15.70;100.00;101539.72;4957329;29;20062;-77
2023/07/17 00:52:00;;;;;;;8.75;4.28;;;;;;;15.50;100.00;101512.50;4957182;29;20055;-80
2023/07/17 00:54:27;;;;;;;9.02;3.72;;;;;;;15.55;100.00;101533.03;4957094;29;20375;-78
2023/07/17 00:56:54;;;;;;;7.68;3.70;;;;;;;15.46;100.00;101515.47;4957159;29;20038;-78
2023/07/17 00:59:20;;;;;;;7.50;3.33;;;;;;;15.57;100.00;101535.50;4957107;29;20043;-79
2023/07/17 01:01:46;;;;;;;9.52;4.18;;;;;;;15.36;100.00;101525.72;4957086;29;20151;-78
2023/07/17 01:04:12;;;;;;;7.55;3.60;;;;;;;15.43;100.00;101549.50;4957062;29;20019;-75
2023/07/17 01:06:38;;;;;;;7.88;3.33;;;;;;;15.44;100.00;101545.97;4956096;28;20050;-76
2023/07/17 01:09:06;;;;;;;6.22;3.33;;;;;;;15.35;100.00;101544.03;4956921;29;20039;-77
2023/07/17 01:11:32;;;;;;;9.02;3.25;;;;;;;15.11;100.00;101518.81;4956858;29;20024;-75
2023/07/17 01:13:58;;;;;;;7.72;3.38;;;;;;;15.27;100.00;101555.00;4956945;29;20027;-76
2023/07/17 01:16:23;;;;;;;7.38;3.42;;;;;;;15.19;100.00;101565.94;4956933;29;20038;-76
2023/07/17 01:18:48;;;;;;;7.68;3.63;;;;;;;15.17;100.00;101562.63;4956762;29;20086;-75
2023/07/17 01:21:19;;;;;;;9.75;4.00;;;;;;;15.02;100.00;101540.28;4956717;29;20035;-75
2023/07/17 01:23:45;;;;;;;8.10;3.83;;;;;;;15.06;100.00;101554.75;4956896;29;20407;-76
2023/07/17 01:26:12;;;;;;;8.93;3.88;;;;;;;14.99;100.00;101550.06;4956538;29;20023;-74
2023/07/17 01:28:39;;;;;;;7.90;3.30;;;;;;;14.81;100.00;101528.78;4956672;29;20098;-75
2023/07/17 01:31:04;;;;;;;8.50;3.72;;;;;;;14.98;100.00;101564.84;4956595;29;20051;-75
2023/07/17 01:33:30;;;;;;;9.30;4.43;;;;;;;14.94;100.00;101568.56;4956650;29;20035;-75
2023/07/17 01:35:55;;;;;;;8.15;3.80;;;;;;;14.78;100.00;101557.59;4956364;29;20019;-75
2023/07/17 01:38:20;;;;;;;9.15;4.28;;;;;;;14.74;100.00;101561.31;4956313;29;20062;-75
2023/07/17 01:40:45;;;;;;;8.57;4.20;;;;;;;14.71;100.00;101553.75;4956382;29;20030;-74
2023/07/17 01:43:11;;;;;;;9.13;3.90;;;;;;;14.78;100.00;101583.59;4956346;29;20050;-75
2023/07/17 01:45:36;;;;;;;10.60;4.10;;;;;;;14.62;100.00;101557.81;4956339;29;20066;-75
2023/07/17 01:48:01;;;;;;;9.15;4.05;;;;;;;14.69;100.00;101572.06;4956291;29;20061;-74
2023/07/17 01:50:27;;;;;;;8.68;3.85;;;;;;;14.64;100.00;101567.16;4956287;29;20027;-75
2023/07/17 01:52:52;;;;;;;8.82;4.00;;;;;;;14.64;100.00;101564.56;4956121;29;20547;-75
2023/07/17 01:55:18;;;;;;;8.35;4.07;;;;;;;14.62;100.00;101570.81;4956529;29;20102;-75
2023/07/17 01:57:43;;;;;;;10.98;4.72;;;;;;;14.56;100.00;101564.28;4955781;29;20035;-75
2023/07/17 02:00:12;;;;;;;10.25;4.10;;;;;;;14.53;100.00;101569.66;4956107;29;20057;-74
2023/07/17 02:02:37;;;;;;;9.65;4.03;;;;;;;14.27;100.00;101529.81;4956076;29;20118;-75
2023/07/17 02:05:03;;;;;;;8.18;3.80;;;;;;;14.47;100.00;101569.25;4955607;29;20118;-74
2023/07/17 02:07:28;;;;;;;9.13;4.53;;;;;;;14.44;100.00;101567.63;4955755;29;20027;-73
2023/07/17 02:09:53;;;;;;;7.60;4.22;;;;;;;14.41;100.00;101573.06;4955804;29;20040;-75
2023/07/17 02:12:19;;;;;;;10.05;4.47;;;;;;;14.24;100.00;101548.19;4955766;29;20039;-75
2023/07/17 02:14:44;;;;;;;9.02;4.07;;;;;;;14.23;100.00;101563.88;4955702;29;20483;-74
2023/07/17 02:17:09;;;;;;;8.80;4.35;;;;;;;14.18;100.00;101560.78;4938460;29;20476;-75
2023/07/17 02:19:35;;;;;;;11.00;4.35;;;;;;;14.18;100.00;101566.81;4954913;28;20384;-75
2023/07/17 02:22:00;;;;;;;6.75;4.05;;;;;;;14.19;100.00;101576.25;4955456;29;20058;-75
2023/07/17 02:24:26;;;;;;;9.88;4.97;;;;;;;14.10;100.00;101574.25;4955544;29;20067;-74
2023/07/17 02:26:51;;;;;;;9.88;4.72;;;;;;;14.14;100.00;101580.06;4955599;29;20027;-74
2023/07/17 02:29:16;;;;;;;6.90;3.80;;;;;;;14.00;100.00;101563.66;4955274;29;20034;-74
2023/07/17 02:31:42;;;;;;;9.43;4.85;;;;;;;14.12;100.00;101579.34;4955530;29;20031;-75
2023/07/17 02:34:07;;;;;;;9.85;4.32;;;;;;;13.95;100.00;101568.28;4955245;29;20035;-75
2023/07/17 02:36:32;;;;;;;10.00;4.45;;;;;;;14.03;100.00;101583.38;4955341;29;20423;-75
2023/07/17 02:38:58;;;;;;;9.85;4.63;;;;;;;14.02;100.00;101582.56;4955156;29;20039;-75
2023/07/17 02:41:23;;;;;;;9.18;4.10;;;;;;;13.75;100.00;101548.81;4955490;29;20166;-75
2023/07/17 02:43:48;;;;;;;9.10;4.53;;;;;;;13.73;100.00;101547.25;4955258;29;20476;-74
2023/07/17 02:46:14;;;;;;;11.27;4.78;;;;;;;13.71;100.00;101549.13;4955375;29;20050;-75
2023/07/17 02:48:39;;;;;;;9.52;5.20;;;;;;;13.89;100.00;101586.06;4954894;29;20035;-75
2023/07/17 02:51:05;;;;;;;10.75;4.32;;;;;;;13.79;100.00;101572.84;4955151;29;20106;-74
2023/07/17 02:53:30;;;;;;;9.68;4.57;;;;;;;13.86;100.00;101592.25;4955026;29;20042;-74
2023/07/17 02:55:56;;;;;;;10.50;4.72;;;;;;;13.85;100.00;101588.00;4954930;29;20031;-75
2023/07/17 02:58:21;;;;;;;11.48;4.75;;;;;;;13.81;100.00;101589.13;4954823;29;20027;-75
2023/07/17 03:00:46;;;;;;;11.60;4.63;;;;;;;13.71;100.00;101577.69;4954742;29;20031;-76
2023/07/17 03:03:12;;;;;;;12.90;4.88;;;;;;;13.65;100.00;101583.25;4955056;29;20035;-75
2023/07/17 03:05:37;;;;;;;10.23;4.60;;;;;;;13.56;100.00;101569.09;4954777;29;20078;-74
2023/07/17 03:08:03;;;;;;;9.27;4.60;;;;;;;13.68;100.00;101596.06;4954719;29;20122;-74
2023/07/17 03:10:29;;;;;;;9.70;4.28;;;;;;;13.39;100.00;101554.63;4954735;29;20027;-75
2023/07/17 03:12:55;;;;;;;9.90;4.45;;;;;;;13.51;100.00;101584.16;4955018;29;20031;-74
2023/07/17 03:15:20;;;;;;;9.82;4.40;;;;;;;13.66;100.00;101609.09;4954394;29;20165;-76
2023/07/17 03:17:46;;;;;;;9.93;3.90;;;;;;;13.63;100.00;101608.47;4954673;29;20023;-77
2023/07/17 03:20:13;;;;;;;10.23;4.75;;;;;;;13.61;100.00;101605.16;4937313;29;20035;-75
2023/07/17 03:22:38;;;;;;;11.65;4.50;;;;;;;13.48;100.00;101590.38;4954884;29;20039;-75
2023/07/17 03:25:05;;;;;;;12.60;4.30;;;;;;;13.56;100.00;101610.63;4954561;29;20023;-75
2023/07/17 03:27:30;;;;;;;10.90;5.00;;;;;;;13.55;100.00;101614.16;4937318;29;20027;-75
2023/07/17 03:29:56;;;;;;;9.80;4.35;;;;;;;13.51;100.00;101617.03;4954124;29;20023;-75
2023/07/17 03:32:21;;;;;;;8.68;4.47;;;;;;;13.33;100.00;101593.91;4954755;29;20031;-75
2023/07/17 03:34:46;;;;;;;9.85;4.13;;;;;;;13.48;100.00;101613.72;4954601;29;20043;-75
2023/07/17 03:37:12;;;;;;;10.45;4.35;;;;;;;13.48;100.00;101612.88;4954476;29;20062;-75
2023/07/17 03:39:38;;;;;;;8.18;4.10;;;;;;;13.45;100.00;101610.47;4937273;29;20055;-77
2023/07/17 03:42:10;;;;;;;10.50;4.18;;;;;;;13.44;100.00;101614.00;4954402;29;20033;-76
2023/07/17 03:44:35;;;;;;;10.02;4.20;;;;;;;13.37;100.00;101603.19;4954442;29;20031;-75
2023/07/17 03:47:00;;;;;;;13.13;4.30;;;;;;;13.42;100.00;101611.50;4954415;29;20489;-75
2023/07/17 03:49:26;;;;;;;11.55;4.70;;;;;;;13.41;100.00;101611.59;4954651;29;20088;-74
2023/07/17 03:51:51;;;;;;;10.02;4.45;;;;;;;13.40;100.00;101615.94;4954388;29;20031;-75
2023/07/17 03:54:16;;;;;;;9.55;4.70;;;;;;;13.40;100.00;101615.13;4954485;29;20028;-75
2023/07/17 03:56:41;;;;;;;13.57;4.68;;;;;;;13.41;100.00;101616.78;4954182;29;20049;-76
2023/07/17 03:59:07;;;;;;;9.18;4.55;;;;;;;13.11;100.00;101567.59;4954221;29;20376;-77
2023/07/17 04:01:32;;;;;;;9.95;4.13;;;;;;;13.41;100.00;101620.22;4954568;29;20038;-75
2023/07/17 04:03:58;;;;;;;10.65;3.95;;;;;;;13.43;100.00;101620.09;4954347;29;20019;-75
2023/07/17 04:06:23;;;;;;;9.65;4.00;;;;;;;13.40;100.00;101620.31;4954330;29;20098;-76
2023/07/17 04:08:48;;;;;;;9.27;3.85;;;;;;;13.47;100.00;101624.19;4954363;29;20057;-75
2023/07/17 04:11:14;;;;;;;10.13;4.65;;;;;;;13.48;100.00;101634.47;4954125;29;20395;-75
2023/07/17 04:13:40;;;;;;;8.35;4.18;;;;;;;13.48;100.00;101631.06;4954102;29;20118;-75
2023/07/17 04:16:05;;;;;;;9.77;4.00;;;;;;;13.46;100.00;101628.53;4936717;29;20067;-75
2023/07/17 04:18:30;;;;;;;10.80;5.13;;;;;;;13.48;100.00;101626.69;4936952;29;20027;-76
2023/07/17 04:20:56;;;;;;;12.18;4.55;;;;;;;13.38;100.00;101604.00;4954421;29;20035;-76
2023/07/17 04:23:21;;;;;;;11.48;4.30;;;;;;;13.59;100.00;101638.16;4954083;29;20034;-75
2023/07/17 04:25:47;;;;;;;12.05;4.60;;;;;;;13.61;100.00;101637.13;4953955;29;20035;-75
2023/07/17 04:28:12;;;;;;;10.48;4.40;;;;;;;13.66;100.00;101647.22;4954017;29;20059;-74
2023/07/17 04:30:37;;;;;;;10.73;4.25;;;;;;;13.57;100.00;101622.69;4953674;29;20051;-74
2023/07/17 04:33:04;;;;;;;10.90;4.18;;;;;;;13.20;100.00;101567.06;4954034;29;20059;-75
2023/07/17 04:35:35;;;;;;;10.80;4.90;;;;;;;13.72;100.00;101634.69;4954018;29;20035;-76
2023/07/17 04:38:01;;;;;;;11.18;4.72;;;;;;;13.85;100.00;101654.66;4953747;29;20078;-74
2023/07/17 04:40:26;;;;;;;11.77;4.88;;;;;;;13.94;100.00;101652.31;4954004;29;20035;-74
2023/07/17 04:42:51;;;;;;;8.00;4.13;;;;;;;14.24;100.00;101656.47;4956017;28;20023;-71
2023/07/17 04:45:19;;;;;;;9.20;4.20;;;;;;;14.43;100.00;101653.50;4957069;29;20406;-72
2023/07/17 04:47:44;;;;;;;7.63;3.58;;;;;;;14.93;100.00;101660.53;4957447;29;20094;-71
2023/07/17 04:50:10;;;;;;;8.50;4.10;;;;;;;15.00;100.00;101651.41;4957272;29;20436;-74
2023/07/17 04:52:35;;;;;;;7.70;4.32;;;;;;;15.20;100.00;101666.47;4957288;29;20120;-76
2023/07/17 04:55:00;;;;;;;8.30;3.95;;;;;;;15.27;100.00;101668.66;4956997;29;20027;-77
2023/07/17 04:57:26;;;;;;;8.05;3.70;;;;;;;15.46;100.00;101676.84;4957388;29;20038;-71
2023/07/17 04:59:51;;;;;;;12.60;4.70;;;;;;;15.48;99.15;101682.78;4956720;29;20032;-72
2023/07/17 05:02:18;;;;;;;8.93;4.07;;;;;;;15.49;98.36;101679.22;4956996;29;20034;-72
2023/07/17 05:04:44;;;;;;;6.38;3.78;;;;;;;15.59;98.88;101664.63;4957008;29;20027;-72
2023/07/17 05:07:09;;;;;;;9.63;3.95;;;;;;;15.55;97.46;101638.94;4956658;29;20422;-72
2023/07/17 05:09:34;;;;;;;11.88;5.22;;;;;;;15.79;97.10;101676.25;4956999;29;20066;-72
2023/07/17 05:12:00;;;;;;;8.48;3.80;;;;;;;15.95;95.38;101681.22;4956946;29;20055;-72
2023/07/17 05:14:25;;;;;;;8.45;4.32;;;;;;;16.84;91.22;101658.06;4956796;29;20117;-72
2023/07/17 05:16:50;;;;;;;9.48;3.90;;;;;;;18.44;83.96;101690.69;4956532;29;20058;-72
2023/07/17 05:19:16;;;;;;;7.05;3.80;;;;;;;19.70;76.37;101687.78;4956823;29;20036;-72
2023/07/17 05:21:41;;;;;;;9.65;4.07;;;;;;;20.57;70.23;101682.59;4956655;29;20471;-74
2023/07/17 05:24:06;;;;;;;8.77;4.07;;;;;;;21.14;66.35;101693.06;4956347;29;20155;-72
2023/07/17 05:26:32;;;;;;;9.55;3.75;;;;;;;21.72;64.80;101683.09;4954920;29;20114;-71
2023/07/17 05:28:57;;;;;;;7.45;3.85;;;;;;;22.33;60.85;101692.91;4956940;29;20379;-72
2023/07/17 05:31:22;;;;;;;9.88;4.18;;;;;;;22.51;60.31;101681.50;4956951;29;20490;-75
2023/07/17 05:33:48;;;;;;;12.25;4.10;;;;;;;22.88;58.29;101683.94;4955339;29;20523;-74
2023/07/17 05:36:13;;;;;;;8.07;3.55;;;;;;;23.15;56.71;101707.47;4956296;29;20031;-77
2023/07/17 05:38:38;;;;;;;8.88;3.80;;;;;;;23.65;54.78;101711.97;4956506;29;20431;-73
2023/07/17 05:41:04;;;;;;;8.10;4.00;;;;;;;23.67;54.60;101707.34;4956052;29;20031;-71
2023/07/17 05:43:33;;;;;;;8.20;3.35;;;;;;;23.77;53.72;101706.38;4956431;29;20035;-76
2023/07/17 05:45:58;;;;;;;7.90;3.38;;;;;;;24.06;53.34;101700.66;4938714;29;20109;-74
2023/07/17 05:48:24;;;;;;;9.10;4.32;;;;;;;24.38;51.45;101723.63;4956355;29;20471;-75
2023/07/17 05:50:49;;;;;;;10.00;4.20;;;;;;;24.84;49.83;101709.72;4956211;29;20046;-79
2023/07/17 05:53:15;;;;;;;8.63;3.83;;;;;;;24.93;50.10;101713.16;4956222;28;20118;-76
2023/07/17 05:55:41;;;;;;;7.97;3.42;;;;;;;25.05;48.93;101721.59;4956117;29;20074;-75
2023/07/17 05:58:07;;;;;;;7.95;3.97;;;;;;;24.87;49.26;101705.91;4954886;29;20074;-77
2023/07/17 06:00:33;;;;;;;9.55;4.05;;;;;;;24.71;49.06;101695.41;4954718;29;20035;-76
2023/07/17 06:02:58;;;;;;;10.35;3.72;;;;;;;25.37;48.10;101724.13;4955817;28;20039;-76
2023/07/17 06:05:24;;;;;;;7.72;3.65;;;;;;;25.37;47.95;101703.00;4955876;28;20163;-76
2023/07/17 06:07:49;;;;;;;8.25;4.10;;;;;;;25.46;47.73;101727.53;4955682;28;20391;-77
2023/07/17 06:10:15;;;;;;;10.45;3.65;;;;;;;25.53;46.68;101717.09;4983677;23;20050;-79
2023/07/17 06:12:42;;;;;;;7.40;3.90;;;;;;;25.42;47.18;101719.16;5013974;28;20026;-76
2023/07/17 06:15:09;;;;;;;11.98;4.70;;;;;;;25.29;47.46;101732.09;5013885;28;20022;-78
2023/07/17 06:17:35;;;;;;;10.65;4.22;;;;;;;25.29;47.19;101728.63;5013556;28;20034;-77
2023/07/17 06:20:00;;;;;;;8.55;4.22;;;;;;;25.61;46.68;101720.53;5013954;28;20037;-77
2023/07/17 06:22:25;;;;;;;9.18;4.05;;;;;;;25.56;45.81;101732.63;5014019;28;20105;-79
2023/07/17 06:24:51;;;;;;;8.63;3.70;;;;;;;25.71;46.26;101747.63;5014055;28;20075;-81
2023/07/17 06:27:16;;;;;;;8.82;3.97;;;;;;;26.20;46.62;101741.22;5013992;28;20121;-81
2023/07/17 06:29:41;;;;;;;9.20;3.58;;;;;;;26.39;44.70;101714.28;5013884;28;20029;-82
2023/07/17 06:32:07;;;;;;;10.20;3.95;;;;;;;26.59;43.68;101741.09;5013290;28;20466;-80
2023/07/17 06:34:34;;;;;;;9.90;3.92;;;;;;;26.42;44.35;101735.09;5013725;28;20388;-79
2023/07/17 06:37:01;;;;;;;12.02;4.22;;;;;;;26.35;44.65;101750.03;5013633;28;20026;-78
2023/07/17 06:39:26;;;;;;;8.35;3.92;;;;;;;26.49;44.43;101737.84;5013706;28;20025;-78
2023/07/17 06:41:52;;;;;;;9.88;4.00;;;;;;;26.18;44.22;101738.75;4995259;28;20046;-81
2023/07/17 06:44:17;;;;;;;8.30;3.97;;;;;;;25.34;45.90;101728.94;5013430;28;20088;-82
2023/07/17 06:46:43;;;;;;;10.48;4.10;;;;;;;25.41;46.23;101738.66;5013144;28;20057;-79
2023/07/17 06:49:08;;;;;;;10.43;4.47;;;;;;;24.69;47.39;101727.25;5013279;28;20104;-82
2023/07/17 06:51:33;;;;;;;8.38;4.40;;;;;;;24.04;50.03;101729.84;5013534;28;20505;-82
2023/07/17 06:53:59;;;;;;;6.95;3.88;;;;;;;23.23;51.87;101762.03;5013409;28;20030;-82
2023/07/17 06:56:24;;;;;;;10.80;4.47;;;;;;;22.31;54.96;101772.97;5013592;28;20097;-82
2023/07/17 06:58:50;;;;;;;12.35;5.15;;;;;;;21.72;57.56;101774.28;5013226;28;20030;-79
2023/07/17 07:01:15;;;;;;;9.27;4.63;;;;;;;21.50;57.82;101772.88;5012922;28;20030;-80
2023/07/17 07:03:42;;;;;;;9.73;4.60;;;;;;;21.51;58.14;101771.06;4994937;28;20112;-80
2023/07/17 07:06:08;;;;;;;13.00;4.57;;;;;;;21.23;59.78;101762.28;4994250;28;20041;-80
2023/07/17 07:08:33;;;;;;;10.57;5.28;;;;;;;21.25;60.68;101774.31;5012991;28;20483;-79
2023/07/17 07:11:00;;;;;;;9.77;5.07;;;;;;;21.15;59.24;101753.34;5013234;28;20045;-84
2023/07/17 07:13:26;;;;;;;10.13;4.72;;;;;;;20.88;60.26;101755.88;5011866;28;20104;-79
2023/07/17 07:15:52;;;;;;;11.70;4.95;;;;;;;20.74;61.84;101783.38;5013819;28;20125;-76
2023/07/17 07:18:19;;;;;;;11.10;5.00;;;;;;;20.99;61.50;101754.88;5012985;28;20036;-73
2023/07/17 07:20:45;;;;;;;10.68;4.70;;;;;;;22.22;58.69;101784.38;4995140;28;20045;-82
2023/07/17 07:23:10;;;;;;;10.68;5.20;;;;;;;22.30;57.30;101779.22;5012928;28;20017;-83
2023/07/17 07:25:36;;;;;;;10.13;4.97;;;;;;;21.74;56.65;101777.63;5013017;28;20025;-82
2023/07/17 07:28:02;;;;;;;9.70;4.28;;;;;;;21.50;58.83;101793.88;5012829;28;20109;-80
2023/07/17 07:30:28;;;;;;;10.10;4.95;;;;;;;21.15;59.08;101794.53;4995502;28;20428;-82
2023/07/17 07:32:53;;;;;;;10.45;4.40;;;;;;;21.15;60.34;101776.16;5012668;28;20026;-80
2023/07/17 07:35:19;;;;;;;12.48;5.45;;;;;;;22.04;57.68;101798.34;5012799;28;20029;-84
2023/07/17 07:37:44;;;;;;;9.00;4.20;;;;;;;22.79;55.81;101795.44;5012882;28;20059;-76
2023/07/17 07:40:11;;;;;;;11.82;4.80;;;;;;;23.06;54.15;101797.97;5012703;28;20034;-82
2023/07/17 07:42:43;;;;;;;11.65;4.43;;;;;;;23.35;52.65;101802.09;5012773;28;20026;-84
2023/07/17 07:45:10;;;;;;;10.10;4.78;;;;;;;23.10;53.78;101807.22;5012810;28;20026;-78
2023/07/17 07:47:35;;;;;;;10.57;4.70;;;;;;;22.75;54.15;101808.09;5012670;28;20080;-83
2023/07/17 07:50:00;;;;;;;8.63;4.45;;;;;;;22.38;55.43;101815.31;5012620;28;20030;-79
2023/07/17 07:52:27;;;;;;;10.50;4.47;;;;;;;22.22;56.27;101811.56;5012892;28;20030;-83
2023/07/17 07:54:53;;;;;;;11.15;4.57;;;;;;;21.83;56.74;101786.41;5012903;28;20129;-83
2023/07/17 07:57:19;;;;;;;9.23;4.30;;;;;;;21.80;57.87;101816.44;5011716;28;20180;-80
2023/07/17 07:59:44;;;;;;;10.73;5.05;;;;;;;21.45;60.35;101793.50;5012566;28;20513;-85
2023/07/17 08:02:10;;;;;;;13.40;4.90;;;;;;;21.59;59.76;101815.84;5012736;28;20037;-81
2023/07/17 08:04:35;;;;;;;12.68;5.35;;;;;;;21.39;58.97;101797.53;5012492;28;20018;-76
2023/07/17 08:07:01;;;;;;;10.75;4.95;;;;;;;21.52;58.47;101820.84;5012612;28;20022;-77
2023/07/17 08:09:27;;;;;;;11.50;4.85;;;;;;;21.60;58.56;101799.09;5012307;28;20058;-79
2023/07/17 08:11:52;;;;;;;7.97;4.13;;;;;;;21.90;58.10;101809.34;5012692;28;20040;-80
2023/07/17 08:14:20;;;;;;;10.63;4.35;;;;;;;21.90;57.60;101819.03;5012757;28;20382;-84
2023/07/17 08:16:46;;;;;;;14.82;4.65;;;;;;;22.04;57.21;101824.66;5013269;28;20037;-78
2023/07/17 08:19:12;;;;;;;12.77;4.72;;;;;;;22.22;56.86;101819.44;5015604;28;20038;-75
2023/07/17 08:21:37;;;;;;;12.18;4.60;;;;;;;22.31;57.41;101820.34;4998676;28;20104;-75
2023/07/17 08:24:03;;;;;;;10.93;3.83;;;;;;;22.46;56.46;101820.66;5016056;28;20029;-76
2023/07/17 08:26:29;;;;;;;11.20;4.10;;;;;;;22.20;56.60;101802.97;5016152;28;20080;-82
2023/07/17 08:28:54;;;;;;;9.50;4.28;;;;;;;22.29;55.76;101824.94;5016019;28;20026;-82
2023/07/17 08:31:19;;;;;;;12.65;4.30;;;;;;;22.22;56.43;101823.84;5016062;28;20030;-82
2023/07/17 08:33:45;;;;;;;10.80;4.45;;;;;;;22.00;55.81;101820.63;5015774;28;20114;-83
2023/07/17 08:36:10;;;;;;;10.07;4.68;;;;;;;21.88;57.18;101829.69;5015724;28;20045;-80
2023/07/17 08:38:37;;;;;;;8.07;4.55;;;;;;;22.01;56.84;101821.47;5015644;28;20029;-83
2023/07/17 08:41:02;;;;;;;12.65;4.88;;;;;;;21.99;55.30;101836.56;5015833;28;20029;-82
2023/07/17 08:43:28;;;;;;;12.52;4.55;;;;;;;21.83;55.09;101836.34;5015970;28;20080;-79
2023/07/17 08:45:54;;;;;;;8.75;4.30;;;;;;;21.84;55.58;101788.91;5015715;28;20424;-74
2023/07/17 08:48:20;;;;;;;9.77;4.47;;;;;;;22.15;54.23;101834.16;5015544;28;20030;-83
2023/07/17 08:50:46;;;;;;;10.52;4.15;;;;;;;22.28;54.20;101836.44;5015445;28;20370;-81
2023/07/17 08:53:11;;;;;;;8.73;4.18;;;;;;;22.33;53.90;101839.47;5015451;28;20037;-81
2023/07/17 08:55:37;;;;;;;10.10;4.32;;;;;;;22.67;53.05;101838.78;5015533;28;20066;-81
2023/07/17 08:58:04;;;;;;;8.63;3.78;;;;;;;22.80;52.91;101821.63;5015423;28;20026;-78
2023/07/17 09:00:31;;;;;;;9.18;3.80;;;;;;;23.00;50.77;101839.91;5015670;28;20030;-80
2023/07/17 09:02:57;;;;;;;8.70;3.95;;;;;;;22.94;51.00;101825.56;5015482;28;20025;-77
2023/07/17 09:05:22;;;;;;;9.88;3.88;;;;;;;22.94;51.20;101822.91;5015092;28;20030;-77
2023/07/17 09:07:47;;;;;;;9.48;4.10;;;;;;;23.00;50.66;101842.53;5015288;28;20061;-82
2023/07/17 09:10:13;;;;;;;10.75;4.25;;;;;;;22.81;51.05;101835.59;5015040;28;20077;-77
2023/07/17 09:12:41;;;;;;;10.48;4.20;;;;;;;22.48;49.77;101822.16;4997819;28;20109;-78
2023/07/17 09:15:07;;;;;;;11.93;3.83;;;;;;;22.44;50.90;101833.97;5015423;28;20022;-82
2023/07/17 09:17:33;;;;;;;10.70;4.05;;;;;;;22.36;49.84;101836.53;5015076;28;20048;-77
2023/07/17 09:20:10;;;;;;;10.13;3.83;;;;;;;22.26;50.15;101838.38;5014896;28;20030;-77
2023/07/17 09:22:37;;;;;;;14.38;4.28;;;;;;;21.99;51.86;101834.75;5014970;28;20113;-80
2023/07/17 09:25:03;;;;;;;8.52;4.10;;;;;;;22.26;52.45;101849.75;5014948;28;20033;-80
2023/07/17 09:27:29;;;;;;;7.55;3.60;;;;;;;22.24;51.44;101809.59;5014608;28;20105;-79
2023/07/17 09:29:54;;;;;;;9.48;4.05;;;;;;;22.81;50.25;101836.47;5015179;28;20156;-79
2023/07/17 09:32:21;;;;;;;11.10;4.00;;;;;;;23.03;48.64;101845.72;5014830;28;20033;-79
2023/07/17 09:34:52;;;;;;;9.75;3.75;;;;;;;22.76;49.15;101812.38;5014482;28;20022;-80
2023/07/17 09:37:17;;;;;;;8.90;3.53;;;;;;;22.54;50.10;101844.44;4996531;28;20401;-80
2023/07/17 09:39:42;;;;;;;7.85;3.90;;;;;;;22.11;51.05;101851.19;5014738;28;20022;-80
2023/07/17 09:42:23;;;;;;;10.45;3.88;;;;;;;21.84;52.49;101845.94;5014840;28;20029;-80
2023/07/17 09:44:50;;;;;;;9.82;3.88;;;;;;;21.71;53.93;101841.81;5014658;28;20363;-80
2023/07/17 09:47:16;;;;;;;8.35;3.83;;;;;;;21.99;52.27;101849.72;5014653;28;20080;-80
2023/07/17 09:49:42;;;;;;;10.40;3.75;;;;;;;22.34;52.09;101849.00;5014042;28;20413;-79
2023/07/17 09:52:08;;;;;;;10.00;3.90;;;;;;;22.40;49.56;101842.31;5014420;28;20032;-79
2023/07/17 09:54:34;;;;;;;8.75;3.25;;;;;;;22.52;48.67;101841.97;4996393;28;20504;-78
2023/07/17 09:57:00;;;;;;;7.60;2.75;;;;;;;22.36;47.59;101836.53;5014446;28;20437;-80
2023/07/17 09:59:30;;;;;;;5.75;2.40;;;;;;;22.42;48.50;101824.56;4996134;28;20038;-78
2023/07/17 10:01:59;;;;;;;5.85;2.95;;;;;;;22.79;48.05;101853.38;5014140;28;20048;-79
2023/07/17 10:04:41;;;;;;;7.63;3.75;;;;;;;23.03;48.13;101848.34;5013932;28;20096;-80
2023/07/17 10:07:07;;;;;;;6.55;2.88;;;;;;;22.86;46.94;101812.31;5014094;28;20481;-78
2023/07/17 10:09:36;;;;;;;8.65;3.28;;;;;;;22.88;47.76;101815.63;5014019;28;20573;-77
2023/07/17 10:12:03;;;;;;;7.45;3.08;;;;;;;23.11;48.11;101843.16;5014332;28;20025;-77
2023/07/17 10:14:30;;;;;;;6.53;2.85;;;;;;;23.36;45.39;101838.03;5014137;28;20030;-77
2023/07/17 10:16:55;;;;;;;7.68;3.35;;;;;;;23.58;44.92;101852.47;5013900;28;20026;-79
2023/07/17 10:19:20;;;;;;;5.95;2.47;;;;;;;23.55;43.33;101821.97;5013913;28;20038;-80
2023/07/17 10:21:57;;;;;;;8.23;2.80;;;;;;;23.62;44.86;101825.69;5013724;28;20025;-79
2023/07/17 10:24:23;;;;;;;6.22;2.80;;;;;;;23.48;43.93;101824.41;5013825;28;20025;-78
2023/07/17 10:26:49;;;;;;;7.72;3.08;;;;;;;23.41;44.67;101848.94;5013955;28;20363;-77
2023/07/17 10:29:14;;;;;;;10.10;3.40;;;;;;;22.99;45.67;101840.88;5013897;28;20029;-79
2023/07/17 10:31:47;;;;;;;6.75;2.90;;;;;;;23.12;45.51;101847.44;5013461;28;20057;-80
2023/07/17 10:34:13;;;;;;;8.82;3.17;;;;;;;23.22;44.69;101846.50;5013769;28;20033;-77
2023/07/17 10:36:42;;;;;;;8.90;3.13;;;;;;;23.11;44.28;101858.97;5013541;28;20053;-80
2023/07/17 10:39:14;;;;;;;6.93;3.03;;;;;;;22.98;45.10;101837.44;5012919;28;20033;-79
2023/07/17 10:41:41;;;;;;;8.63;3.38;;;;;;;22.75;45.07;101834.41;5013653;28;20029;-77
2023/07/17 10:44:08;;;;;;;9.57;3.58;;;;;;;22.80;46.07;101821.63;5013381;28;20041;-79
2023/07/17 10:46:35;;;;;;;7.40;3.15;;;;;;;23.22;45.40;101844.69;5013391;28;20034;-78
2023/07/17 10:49:08;;;;;;;9.60;3.40;;;;;;;23.29;44.84;101840.44;5013436;28;20040;-75
2023/07/17 10:51:34;;;;;;;7.82;3.30;;;;;;;23.13;44.76;101846.44;5013214;28;20033;-77
2023/07/17 10:54:00;;;;;;;6.55;3.00;;;;;;;22.98;44.43;101832.16;5013340;28;20496;-75
2023/07/17 10:56:25;;;;;;;7.47;3.38;;;;;;;22.74;43.68;101803.81;5013303;28;20029;-76
2023/07/17 10:58:51;;;;;;;8.32;3.50;;;;;;;22.80;44.75;101818.16;5013032;28;20516;-76
2023/07/17 11:01:17;;;;;;;6.28;3.33;;;;;;;22.75;44.35;101825.69;5013420;28;20030;-76
2023/07/17 11:03:47;;;;;;;7.80;3.58;;;;;;;22.70;44.90;101843.75;5013192;28;20053;-75
2023/07/17 11:06:14;;;;;;;8.50;3.50;;;;;;;22.54;46.00;101834.72;5013131;28;20385;-77
2023/07/17 11:08:39;;;;;;;7.43;3.90;;;;;;;22.74;46.28;101840.66;5013238;28;20034;-77
2023/07/17 11:11:04;;;;;;;8.35;3.45;;;;;;;22.72;46.24;101834.75;5012833;28;20107;-77
2023/07/17 11:13:31;;;;;;;6.65;3.35;;;;;;;22.96;46.50;101842.03;5013079;28;20036;-76